Time;durP1;ratioP1;P1;durP2;ratioP2;P2;SDS_P1;SDS_P2;PMS_P1;PMS_P2;Temp;Humidity;BMP_temperature;BMP_pressure;BME280_temperature;BME280_humidity;BME280_pressure;Samples;Min_cycle;Max_cycle;Signal;HPM_P1;HPM_P2
2022/01/15 00:00:07;;;;;;;76.97;45.70;;;;;;;;;;5031285;28;20493;-73
2022/01/15 00:02:33;;;;;;;63.53;42.35;;;;;;;;;;5031162;28;20452;-73
2022/01/15 00:04:59;;;;;;;61.42;39.58;;;;;;;;;;5031608;28;20493;-72
2022/01/15 00:07:26;;;;;;;58.10;39.38;;;;;;;;;;5030850;28;20057;-72
2022/01/15 00:09:52;;;;;;;56.63;37.50;;;;;;;;;;5031608;28;20103;-72
2022/01/15 00:12:19;;;;;;;50.45;34.65;;;;;;;;;;5030498;28;20050;-72
2022/01/15 00:14:46;;;;;;;45.38;34.17;;;;;;;;;;5031666;28;20080;-72
2022/01/15 00:17:43;;;;;;;48.67;35.20;;;;;;;;;;5030433;28;20050;-72
2022/01/15 00:20:05;;;;;;;52.70;37.03;;;;;;;;;;5031251;28;20108;-73
2022/01/15 00:22:32;;;;;;;58.28;39.30;;;;;;;;;;5031127;28;20091;-73
2022/01/15 00:24:59;;;;;;;58.30;38.92;;;;;;;;;;5031796;28;20045;-73
2022/01/15 00:27:25;;;;;;;56.88;39.30;;;;;;;;;;5030424;28;20107;-72
2022/01/15 00:29:51;;;;;;;57.80;39.88;;;;;;;;;;5031830;28;20037;-73
2022/01/15 00:32:18;;;;;;;59.55;39.00;;;;;;;;;;5034367;28;20057;-73
2022/01/15 00:34:44;;;;;;;60.17;39.55;;;;;;;;;;5035038;28;20049;-73
2022/01/15 00:37:11;;;;;;;72.10;43.17;;;;;;;;;;5033733;28;20053;-73
2022/01/15 00:39:37;;;;;;;64.70;40.55;;;;;;;;;;5026302;28;20049;-73
2022/01/15 00:42:05;;;;;;;60.08;39.42;;;;;;;;;;5034359;28;20049;-72
2022/01/15 00:44:32;;;;;;;63.67;38.55;;;;;;;;;;5034810;28;20046;-73
2022/01/15 00:46:58;;;;;;;59.42;39.05;;;;;;;;;;5021333;28;20473;-73
2022/01/15 00:49:25;;;;;;;57.47;37.67;;;;;;;;;;5034079;28;20049;-73
2022/01/15 00:51:51;;;;;;;57.83;37.35;;;;;;;;;;5034915;28;20057;-73
2022/01/15 00:54:17;;;;;;;56.10;36.67;;;;;;;;;;5034629;28;20398;-73
2022/01/15 00:56:44;;;;;;;52.38;35.55;;;;;;;;;;5021564;28;20045;-73
2022/01/15 00:59:10;;;;;;;55.63;36.30;;;;;;;;;;5033514;28;20205;-73
2022/01/15 01:01:37;;;;;;;48.90;34.40;;;;;;;;;;5034444;28;20100;-73
2022/01/15 01:04:03;;;;;;;48.72;33.17;;;;;;;;;;5034478;28;20050;-73
2022/01/15 01:06:30;;;;;;;48.83;31.52;;;;;;;;;;5035035;28;20382;-73
2022/01/15 01:08:56;;;;;;;46.13;31.27;;;;;;;;;;5033832;28;20555;-73
2022/01/15 01:11:32;;;;;;;44.78;31.15;;;;;;;;;;5034923;28;20123;-73
2022/01/15 01:24:28;;;;;;;41.45;29.63;;;;;;;;;;5033677;28;20053;-73
2022/01/15 01:26:59;;;;;;;39.53;27.92;;;;;;;;;;5034917;28;20045;-73
2022/01/15 01:29:37;;;;;;;44.38;29.88;;;;;;;;;;5033947;28;20410;-73
2022/01/15 01:32:10;;;;;;;44.95;29.95;;;;;;;;;;5034478;28;20390;-73
2022/01/15 01:34:40;;;;;;;46.20;30.17;;;;;;;;;;5028815;28;20137;-73
2022/01/15 01:37:18;;;;;;;40.05;28.17;;;;;;;;;;5033937;28;20057;-73
2022/01/15 01:39:48;;;;;;;36.92;27.35;;;;;;;;;;5030245;28;20049;-73
2022/01/15 01:45:20;;;;;;;39.17;26.98;;;;;;;;;;5028236;28;20057;-73
2022/01/15 01:47:47;;;;;;;39.00;26.50;;;;;;;;;;5050974;28;20095;-73
2022/01/15 01:50:18;;;;;;;42.35;28.15;;;;;;;;;;5051025;28;20041;-73
2022/01/15 01:52:46;;;;;;;40.30;28.88;;;;;;;;;;5032908;28;20053;-73
2022/01/15 01:55:13;;;;;;;42.50;30.48;;;;;;;;;;5031357;28;20119;-74
2022/01/15 01:57:41;;;;;;;40.60;29.17;;;;;;;;;;5033316;28;20049;-73
2022/01/15 02:00:09;;;;;;;43.85;29.27;;;;;;;;;;5033411;28;20099;-73
2022/01/15 02:02:36;;;;;;;;;;;;;;;;;;5033718;28;20049;-73
2022/01/15 02:05:03;;;;;;;50.13;31.30;;;;;;;;;;5034324;28;19964;-73
2022/01/15 02:07:29;;;;;;;44.60;30.50;;;;;;;;;;5033084;28;20096;-73
2022/01/15 02:09:58;;;;;;;43.03;29.70;;;;;;;;;;5033964;28;20045;-73
2022/01/15 02:12:24;;;;;;;39.38;28.08;;;;;;;;;;5031924;28;20053;-73
2022/01/15 02:14:50;;;;;;;38.33;28.10;;;;;;;;;;5033651;28;20104;-73
2022/01/15 02:17:19;;;;;;;41.67;29.02;;;;;;;;;;5032027;28;20095;-73
2022/01/15 02:25:12;;;;;;;44.80;30.90;;;;;;;;;;5032995;28;20076;-73
2022/01/15 02:27:39;;;;;;;42.42;29.77;;;;;;;;;;5033525;28;20041;-73
2022/01/15 02:30:05;;;;;;;40.28;30.13;;;;;;;;;;5033630;28;20045;-73
2022/01/15 02:32:32;;;;;;;40.45;28.95;;;;;;;;;;5032820;28;20057;-73
2022/01/15 02:35:01;;;;;;;45.58;30.05;;;;;;;;;;5033315;28;20061;-73
2022/01/15 02:37:28;;;;;;;43.83;31.52;;;;;;;;;;5032753;28;20460;-73
2022/01/15 02:39:55;;;;;;;40.38;28.65;;;;;;;;;;5033520;28;20049;-73
2022/01/15 02:42:23;;;;;;;42.33;29.15;;;;;;;;;;5032429;28;20069;-73
2022/01/15 02:44:58;;;;;;;43.78;30.63;;;;;;;;;;5032301;28;20107;-73
2022/01/15 02:50:09;;;;;;;40.30;27.95;;;;;;;;;;5033114;28;20053;-73
2022/01/15 02:52:36;;;;;;;46.55;30.85;;;;;;;;;;5032174;28;20096;-73
2022/01/15 02:55:03;;;;;;;45.15;31.65;;;;;;;;;;5032816;28;20409;-73
2022/01/15 02:57:29;;;;;;;50.03;33.05;;;;;;;;;;5030846;28;20107;-74
2022/01/15 02:59:55;;;;;;;46.42;31.48;;;;;;;;;;5032824;28;20045;-73
2022/01/15 03:02:23;;;;;;;47.55;31.80;;;;;;;;;;5032516;28;20127;-74
2022/01/15 03:04:49;;;;;;;49.47;32.38;;;;;;;;;;5031406;28;20552;-74
2022/01/15 03:07:15;;;;;;;51.03;32.58;;;;;;;;;;5032048;28;20061;-73
2022/01/15 03:09:42;;;;;;;39.85;29.17;;;;;;;;;;5032727;28;20041;-73
2022/01/15 03:12:08;;;;;;;44.70;30.85;;;;;;;;;;5032512;28;20053;-73
2022/01/15 03:14:35;;;;;;;47.10;31.35;;;;;;;;;;5029260;28;20123;-73
2022/01/15 03:17:02;;;;;;;45.47;31.13;;;;;;;;;;5032707;28;20053;-73
2022/01/15 03:19:40;;;;;;;49.67;33.03;;;;;;;;;;5030393;28;20099;-74
2022/01/15 03:22:06;;;;;;;47.65;32.55;;;;;;;;;;5032072;28;20042;-73
2022/01/15 03:24:33;;;;;;;48.30;30.77;;;;;;;;;;5032332;28;20049;-73
2022/01/15 03:26:59;;;;;;;41.50;29.02;;;;;;;;;;5032602;28;20128;-73
2022/01/15 03:29:26;;;;;;;41.45;29.17;;;;;;;;;;5031893;28;20096;-73
2022/01/15 03:31:52;;;;;;;42.65;28.38;;;;;;;;;;5032302;28;20457;-74
2022/01/15 03:34:19;;;;;;;40.35;29.05;;;;;;;;;;5031079;28;20049;-74
2022/01/15 03:36:45;;;;;;;41.17;28.02;;;;;;;;;;5031876;28;20493;-73
2022/01/15 03:39:11;;;;;;;43.88;29.08;;;;;;;;;;5031694;28;20049;-74
2022/01/15 03:41:38;;;;;;;42.03;29.60;;;;;;;;;;5032041;28;20049;-74
2022/01/15 03:44:04;;;;;;;44.42;29.42;;;;;;;;;;5031060;28;20436;-74
2022/01/15 03:46:31;;;;;;;37.92;29.25;;;;;;;;;;5029809;28;20057;-73
2022/01/15 03:48:57;;;;;;;38.75;27.98;;;;;;;;;;5031632;28;20087;-74
2022/01/15 03:51:24;;;;;;;43.33;28.10;;;;;;;;;;5032119;28;20045;-73
2022/01/15 03:53:50;;;;;;;36.97;25.80;;;;;;;;;;5031173;28;20057;-74
2022/01/15 03:56:17;;;;;;;39.28;27.70;;;;;;;;;;5032058;28;20103;-73
2022/01/15 03:58:43;;;;;;;42.03;27.42;;;;;;;;;;5031438;28;20080;-74
2022/01/15 04:01:10;;;;;;;35.13;25.95;;;;;;;;;;5031826;28;20095;-74
2022/01/15 04:03:37;;;;;;;41.88;27.35;;;;;;;;;;5031018;28;20515;-74
2022/01/15 04:06:04;;;;;;;38.03;24.88;;;;;;;;;;5031032;28;20103;-73
2022/01/15 04:08:31;;;;;;;34.30;23.48;;;;;;;;;;5026504;28;20096;-74
2022/01/15 04:10:57;;;;;;;33.00;23.90;;;;;;;;;;5030401;28;20087;-73
2022/01/15 04:13:23;;;;;;;35.40;24.48;;;;;;;;;;5031162;28;20049;-73
2022/01/15 04:15:53;;;;;;;32.03;22.65;;;;;;;;;;5031836;28;20049;-73
2022/01/15 04:18:21;;;;;;;34.58;22.98;;;;;;;;;;5032134;28;20436;-73
2022/01/15 04:20:48;;;;;;;36.30;23.98;;;;;;;;;;5030463;28;20547;-73
2022/01/15 04:23:14;;;;;;;32.95;24.30;;;;;;;;;;5030903;28;20049;-74
2022/01/15 04:25:41;;;;;;;31.67;24.27;;;;;;;;;;5031309;28;20053;-73
2022/01/15 04:28:08;;;;;;;33.47;24.92;;;;;;;;;;5030858;28;20405;-74
2022/01/15 04:30:35;;;;;;;33.40;23.60;;;;;;;;;;5030917;28;20118;-74
2022/01/15 04:33:02;;;;;;;33.47;23.98;;;;;;;;;;5031054;28;20103;-73
2022/01/15 04:35:28;;;;;;;34.47;25.45;;;;;;;;;;5031418;28;20054;-73
2022/01/15 04:38:02;;;;;;;37.08;25.15;;;;;;;;;;5030610;28;20567;-74
2022/01/15 04:40:29;;;;;;;38.47;25.60;;;;;;;;;;5031395;28;20103;-73
2022/01/15 04:42:55;;;;;;;33.20;24.35;;;;;;;;;;5030766;28;20046;-74
2022/01/15 04:45:22;;;;;;;37.20;24.55;;;;;;;;;;5031659;28;20041;-73
2022/01/15 04:47:48;;;;;;;34.25;23.98;;;;;;;;;;5030796;28;20042;-74
2022/01/15 04:50:16;;;;;;;32.85;24.48;;;;;;;;;;5029873;28;20413;-74
2022/01/15 04:52:43;;;;;;;32.90;23.55;;;;;;;;;;5030542;28;20524;-74
2022/01/15 04:55:10;;;;;;;35.05;24.60;;;;;;;;;;5030951;28;20107;-74
2022/01/15 04:57:37;;;;;;;33.33;25.15;;;;;;;;;;5030894;28;20045;-74
2022/01/15 05:00:06;;;;;;;35.67;25.15;;;;;;;;;;5030930;28;20107;-74
2022/01/15 05:02:33;;;;;;;36.45;24.02;;;;;;;;;;5030746;28;20131;-74
2022/01/15 05:04:59;;;;;;;36.35;24.67;;;;;;;;;;5031189;28;20049;-74
2022/01/15 05:07:26;;;;;;;33.88;23.73;;;;;;;;;;5030326;28;20058;-74
2022/01/15 05:09:52;;;;;;;34.70;24.63;;;;;;;;;;5030884;28;20045;-74
2022/01/15 05:12:39;;;;;;;32.47;24.95;;;;;;;;;;5030744;28;20049;-73
2022/01/15 05:15:06;;;;;;;36.13;24.48;;;;;;;;;;5031494;28;20392;-73
2022/01/15 05:17:33;;;;;;;36.10;23.73;;;;;;;;;;5033424;28;20100;-73
2022/01/15 05:19:59;;;;;;;29.63;21.42;;;;;;;;;;5034469;28;20104;-73
2022/01/15 05:22:25;;;;;;;30.33;20.73;;;;;;;;;;5033996;28;20050;-73
2022/01/15 05:24:52;;;;;;;31.63;21.80;;;;;;;;;;5034819;28;20095;-74
2022/01/15 05:27:18;;;;;;;34.00;22.23;;;;;;;;;;5034358;28;20087;-74
2022/01/15 05:29:45;;;;;;;33.72;21.73;;;;;;;;;;5034547;28;20041;-74
2022/01/15 05:32:11;;;;;;;32.47;20.85;;;;;;;;;;5034064;28;20540;-74
2022/01/15 05:34:38;;;;;;;31.88;21.67;;;;;;;;;;5033298;28;20575;-74
2022/01/15 05:37:05;;;;;;;31.45;22.05;;;;;;;;;;5033792;28;20060;-74
2022/01/15 05:39:31;;;;;;;30.05;21.48;;;;;;;;;;5033779;28;20060;-74
2022/01/15 05:41:58;;;;;;;30.40;21.17;;;;;;;;;;5034374;28;20103;-74
2022/01/15 05:44:24;;;;;;;31.10;21.17;;;;;;;;;;5033388;28;20104;-74
2022/01/15 05:46:51;;;;;;;33.28;22.52;;;;;;;;;;5033327;28;20041;-74
2022/01/15 05:49:18;;;;;;;35.83;23.48;;;;;;;;;;5033528;28;20067;-74
2022/01/15 05:51:44;;;;;;;32.70;22.83;;;;;;;;;;5033830;28;20065;-74
2022/01/15 05:54:11;;;;;;;31.33;20.83;;;;;;;;;;5033524;28;20057;-74
2022/01/15 05:56:39;;;;;;;31.38;21.20;;;;;;;;;;5032999;28;20049;-74
2022/01/15 05:59:06;;;;;;;30.42;21.20;;;;;;;;;;5033118;28;20053;-74
2022/01/15 06:01:33;;;;;;;30.95;21.25;;;;;;;;;;5032445;28;20111;-74
2022/01/15 06:04:00;;;;;;;31.73;20.92;;;;;;;;;;5033284;28;20046;-74
2022/01/15 06:06:26;;;;;;;29.58;20.52;;;;;;;;;;5033668;28;20053;-75
2022/01/15 06:08:53;;;;;;;28.42;20.63;;;;;;;;;;5033129;28;20049;-74
2022/01/15 06:11:19;;;;;;;32.25;21.40;;;;;;;;;;5033832;28;20175;-74
2022/01/15 06:13:46;;;;;;;30.67;20.50;;;;;;;;;;5033381;28;20049;-74
2022/01/15 06:16:13;;;;;;;28.05;20.38;;;;;;;;;;5033594;28;20493;-73
2022/01/15 06:18:40;;;;;;;30.27;20.88;;;;;;;;;;5032888;28;20136;-74
2022/01/15 06:21:06;;;;;;;27.58;19.73;;;;;;;;;;5033574;28;20515;-74
2022/01/15 06:23:33;;;;;;;29.25;21.60;;;;;;;;;;5033040;28;20049;-74
2022/01/15 06:25:59;;;;;;;31.20;20.40;;;;;;;;;;5033239;28;20551;-74
2022/01/15 06:28:26;;;;;;;31.40;19.98;;;;;;;;;;5031230;28;20112;-74
2022/01/15 06:30:52;;;;;;;27.10;20.35;;;;;;;;;;5032124;28;20061;-74
2022/01/15 06:33:20;;;;;;;24.88;19.08;;;;;;;;;;5032844;28;20042;-73
2022/01/15 06:35:47;;;;;;;27.80;18.33;;;;;;;;;;5033704;28;20524;-73
2022/01/15 06:38:13;;;;;;;26.17;18.27;;;;;;;;;;5032878;28;20050;-73
2022/01/15 06:40:40;;;;;;;24.90;18.98;;;;;;;;;;5031777;28;20452;-73
2022/01/15 06:43:07;;;;;;;24.95;17.85;;;;;;;;;;5032751;28;20041;-73
2022/01/15 06:45:33;;;;;;;25.17;18.52;;;;;;;;;;5033462;28;20100;-73
2022/01/15 06:48:01;;;;;;;25.65;18.58;;;;;;;;;;5032322;28;20046;-73
2022/01/15 06:50:28;;;;;;;24.40;18.55;;;;;;;;;;5033426;28;20053;-73
2022/01/15 06:52:55;;;;;;;22.45;18.75;;;;;;;;;;5032414;28;20511;-74
2022/01/15 06:55:21;;;;;;;25.75;18.45;;;;;;;;;;5019173;28;20107;-73
2022/01/15 06:57:48;;;;;;;25.10;18.27;;;;;;;;;;5032390;28;20103;-74
2022/01/15 07:00:15;;;;;;;23.02;17.92;;;;;;;;;;5032268;28;20099;-74
2022/01/15 07:02:41;;;;;;;24.30;16.88;;;;;;;;;;5032551;28;20122;-74
2022/01/15 07:05:09;;;;;;;23.63;17.55;;;;;;;;;;5032049;28;20092;-74
2022/01/15 07:07:40;;;;;;;23.03;17.53;;;;;;;;;;5030014;28;20339;-73
2022/01/15 07:10:07;;;;;;;23.58;16.88;;;;;;;;;;5032872;28;20119;-74
2022/01/15 07:12:34;;;;;;;22.65;17.20;;;;;;;;;;5028612;28;20042;-73
2022/01/15 07:15:00;;;;;;;24.52;17.33;;;;;;;;;;5022511;28;20080;-73
2022/01/15 07:17:27;;;;;;;25.58;19.13;;;;;;;;;;5019156;28;20081;-74
2022/01/15 07:19:53;;;;;;;27.65;19.02;;;;;;;;;;5032917;28;20460;-74
2022/01/15 07:22:19;;;;;;;28.52;20.48;;;;;;;;;;5031712;28;20131;-73
2022/01/15 07:24:46;;;;;;;28.13;18.77;;;;;;;;;;5032040;28;20095;-73
2022/01/15 07:27:12;;;;;;;29.15;20.13;;;;;;;;;;5032231;28;20456;-73
2022/01/15 07:29:39;;;;;;;28.75;20.63;;;;;;;;;;5031431;28;20486;-73
2022/01/15 07:32:05;;;;;;;27.92;21.23;;;;;;;;;;5031748;28;20099;-74
2022/01/15 07:34:32;;;;;;;28.67;19.38;;;;;;;;;;5031966;28;20111;-74
2022/01/15 07:36:59;;;;;;;26.67;19.85;;;;;;;;;;5032204;28;20057;-74
2022/01/15 07:39:26;;;;;;;28.85;20.33;;;;;;;;;;5031401;28;20093;-73
2022/01/15 07:41:54;;;;;;;28.37;19.17;;;;;;;;;;5032048;28;20118;-74
2022/01/15 07:44:21;;;;;;;27.20;19.45;;;;;;;;;;5031321;28;20302;-73
2022/01/15 07:46:47;;;;;;;28.60;20.58;;;;;;;;;;5032261;28;20045;-73
2022/01/15 07:49:13;;;;;;;28.60;20.40;;;;;;;;;;5031714;28;20049;-73
2022/01/15 07:51:40;;;;;;;26.92;20.23;;;;;;;;;;5032199;28;20378;-73
2022/01/15 07:54:06;;;;;;;31.73;20.98;;;;;;;;;;5031334;28;20552;-73
2022/01/15 07:56:33;;;;;;;28.17;20.25;;;;;;;;;;5032009;28;20053;-74
2022/01/15 07:58:59;;;;;;;33.83;23.92;;;;;;;;;;5031429;28;20471;-74
2022/01/15 08:01:26;;;;;;;30.23;20.05;;;;;;;;;;5031828;28;20108;-74
2022/01/15 08:03:52;;;;;;;26.60;19.58;;;;;;;;;;5038279;28;20145;-74
2022/01/15 08:06:19;;;;;;;30.88;20.48;;;;;;;;;;5031573;28;20061;-73
2022/01/15 08:08:45;;;;;;;28.05;18.58;;;;;;;;;;5031172;28;20053;-74
2022/01/15 08:11:12;;;;;;;27.30;18.70;;;;;;;;;;5031216;28;20049;-74
2022/01/15 08:13:38;;;;;;;25.48;18.45;;;;;;;;;;5031058;28;20045;-74
2022/01/15 08:16:05;;;;;;;26.58;17.40;;;;;;;;;;5031791;28;20501;-74
2022/01/15 08:18:32;;;;;;;22.58;17.50;;;;;;;;;;5030898;28;20053;-74
2022/01/15 08:20:58;;;;;;;23.15;17.40;;;;;;;;;;5031901;28;20053;-74
2022/01/15 08:23:25;;;;;;;27.95;17.38;;;;;;;;;;5031444;28;20465;-74
2022/01/15 08:25:51;;;;;;;30.77;19.88;;;;;;;;;;5031106;28;20050;-73
2022/01/15 08:28:19;;;;;;;31.60;18.73;;;;;;;;;;5031113;28;20053;-73
2022/01/15 08:30:45;;;;;;;57.10;26.35;;;;;;;;;;5030760;28;20513;-72
2022/01/15 08:33:12;;;;;;;56.50;23.25;;;;;;;;;;5031327;28;20054;-73
2022/01/15 08:35:38;;;;;;;47.50;21.17;;;;;;;;;;5030177;28;20049;-72
2022/01/15 08:38:05;;;;;;;45.72;22.02;;;;;;;;;;5030570;28;20417;-73
2022/01/15 08:40:32;;;;;;;56.10;23.65;;;;;;;;;;5030126;28;20594;-73
2022/01/15 08:42:59;;;;;;;60.72;24.35;;;;;;;;;;5022768;28;20076;-71
2022/01/15 08:45:26;;;;;;;44.78;23.25;;;;;;;;;;5010781;28;20046;-71
2022/01/15 08:47:54;;;;;;;59.20;21.83;;;;;;;;;;5011736;28;20050;-71
2022/01/15 08:50:20;;;;;;;60.72;22.98;;;;;;;;;;5012924;28;20042;-70
2022/01/15 08:52:47;;;;;;;53.20;24.80;;;;;;;;;;5027897;28;20046;-71
2022/01/15 08:55:14;;;;;;;59.45;24.60;;;;;;;;;;5015270;28;20081;-71
2022/01/15 08:57:42;;;;;;;62.25;24.67;;;;;;;;;;5024858;28;20511;-72
2022/01/15 09:00:11;;;;;;;54.17;23.42;;;;;;;;;;5022246;28;20476;-72
2022/01/15 09:02:38;;;;;;;69.00;26.80;;;;;;;;;;5030851;28;20060;-72
2022/01/15 09:05:05;;;;;;;57.25;24.20;;;;;;;;;;5026821;28;20140;-71
2022/01/15 09:07:33;;;;;;;53.35;23.67;;;;;;;;;;5030135;28;20557;-68
2022/01/15 09:10:00;;;;;;;67.35;25.13;;;;;;;;;;5016307;28;20045;-71
2022/01/15 09:12:26;;;;;;;63.58;24.85;;;;;;;;;;5034479;28;20237;-70
2022/01/15 09:14:54;;;;;;;61.45;24.98;;;;;;;;;;5035114;28;20050;-71
2022/01/15 09:17:21;;;;;;;57.25;23.95;;;;;;;;;;5033372;28;20111;-71
2022/01/15 09:19:48;;;;;;;55.33;22.85;;;;;;;;;;5034909;28;20075;-70
2022/01/15 09:22:14;;;;;;;52.88;25.08;;;;;;;;;;5034124;28;20049;-72
2022/01/15 09:24:44;;;;;;;46.38;21.98;;;;;;;;;;5034517;28;20049;-71
2022/01/15 09:30:12;;;;;;;52.50;23.25;;;;;;;;;;5043416;28;20045;-71
2022/01/15 09:32:40;;;;;;;43.78;21.73;;;;;;;;;;5033994;28;20050;-72
2022/01/15 09:35:07;;;;;;;66.25;34.20;;;;;;;;;;5034934;28;20171;-71
2022/01/15 09:37:33;;;;;;;57.20;33.75;;;;;;;;;;5034011;28;20521;-71
2022/01/15 09:40:00;;;;;;;56.10;34.55;;;;;;;;;;5033776;28;20049;-73
2022/01/15 09:42:26;;;;;;;52.55;33.58;;;;;;;;;;5034020;28;20049;-72
2022/01/15 09:44:53;;;;;;;46.38;29.52;;;;;;;;;;5033429;28;20409;-72
2022/01/15 09:47:22;;;;;;;47.47;28.48;;;;;;;;;;5032446;28;20093;-71
2022/01/15 09:49:49;;;;;;;46.40;27.27;;;;;;;;;;5033748;28;20041;-71
2022/01/15 09:52:16;;;;;;;44.15;24.48;;;;;;;;;;5033343;28;20045;-71
2022/01/15 09:54:43;;;;;;;43.87;24.83;;;;;;;;;;5034095;28;20053;-71
2022/01/15 09:57:10;;;;;;;37.50;23.83;;;;;;;;;;5033460;28;20053;-71
2022/01/15 09:59:36;;;;;;;41.75;23.33;;;;;;;;;;5033938;28;20107;-71
2022/01/15 10:02:04;;;;;;;38.80;23.45;;;;;;;;;;5033890;28;20115;-71
2022/01/15 10:04:32;;;;;;;38.40;22.25;;;;;;;;;;5032140;28;20046;-72
2022/01/15 10:07:07;;;;;;;35.95;21.65;;;;;;;;;;5032287;28;20058;-71
2022/01/15 10:09:34;;;;;;;33.33;21.48;;;;;;;;;;5031735;28;20104;-71
2022/01/15 10:12:02;;;;;;;34.60;20.92;;;;;;;;;;5031908;28;20355;-71
2022/01/15 10:14:30;;;;;;;29.65;19.98;;;;;;;;;;5031958;28;20049;-71
2022/01/15 10:16:58;;;;;;;31.73;20.05;;;;;;;;;;5031810;28;20053;-71
2022/01/15 10:19:32;;;;;;;31.83;20.15;;;;;;;;;;5031634;28;20049;-71
2022/01/15 10:22:14;;;;;;;31.65;21.13;;;;;;;;;;5031771;28;20053;-71
2022/01/15 10:24:41;;;;;;;38.45;23.75;;;;;;;;;;5026372;28;20049;-71
2022/01/15 10:27:17;;;;;;;35.08;21.73;;;;;;;;;;5033075;28;20052;-72
2022/01/15 10:29:48;;;;;;;33.40;23.67;;;;;;;;;;5025553;28;20053;-71
2022/01/15 10:32:14;;;;;;;29.65;21.80;;;;;;;;;;5033178;28;20084;-71
2022/01/15 10:34:42;;;;;;;32.30;21.95;;;;;;;;;;5033635;28;20057;-71
2022/01/15 10:37:14;;;;;;;32.70;22.13;;;;;;;;;;5032670;28;20497;-71
2022/01/15 10:39:52;;;;;;;33.55;21.92;;;;;;;;;;5023030;28;20171;-71
2022/01/15 10:42:23;;;;;;;32.35;21.33;;;;;;;;;;5032431;28;20049;-71
2022/01/15 10:44:51;;;;;;;33.50;21.67;;;;;;;;;;5026656;28;20050;-72
2022/01/15 10:47:18;;;;;;;31.35;20.58;;;;;;;;;;5024470;28;20115;-72
2022/01/15 10:49:45;;;;;;;34.67;21.55;;;;;;;;;;5012221;28;20050;-71
2022/01/15 10:52:13;;;;;;;31.35;20.67;;;;;;;;;;5030397;28;20547;-72
2022/01/15 10:54:39;;;;;;;;;;;;;;;;;;5032554;28;20547;-72
2022/01/15 10:57:07;;;;;;;28.65;19.95;;;;;;;;;;5032031;28;19928;-72
2022/01/15 10:59:34;;;;;;;;;;;;;;;;;;5032566;28;20049;-72
2022/01/15 11:02:15;;;;;;;29.08;19.95;;;;;;;;;;5031347;28;19924;-72
2022/01/15 11:04:42;;;;;;;32.95;21.05;;;;;;;;;;5021110;28;20492;-72
2022/01/15 11:07:11;;;;;;;29.50;21.83;;;;;;;;;;5031956;28;20057;-73
2022/01/15 11:09:38;;;;;;;30.85;22.17;;;;;;;;;;5021436;28;20073;-72
2022/01/15 11:12:05;;;;;;;30.40;23.05;;;;;;;;;;5016243;28;20403;-74
2022/01/15 11:14:31;;;;;;;36.22;24.75;;;;;;;;;;5027228;28;20107;-72
2022/01/15 11:16:59;;;;;;;35.90;24.88;;;;;;;;;;5031587;28;20489;-72
2022/01/15 11:19:29;;;;;;;34.45;25.27;;;;;;;;;;5028612;28;20493;-73
2022/01/15 11:21:57;;;;;;;32.60;24.02;;;;;;;;;;5029378;28;20053;-74
2022/01/15 11:24:23;;;;;;;57.03;35.25;;;;;;;;;;5031385;28;20406;-73
2022/01/15 11:26:57;;;;;;;164.38;73.85;;;;;;;;;;5031411;28;20079;-73
2022/01/15 11:29:24;;;;;;;67.50;40.58;;;;;;;;;;5030295;28;20037;-72
2022/01/15 11:31:56;;;;;;;1541.93;553.08;;;;;;;;;;5030200;28;20115;-71
2022/01/15 11:34:29;;;;;;;620.80;207.40;;;;;;;;;;5031600;28;20152;-73
2022/01/15 11:36:55;;;;;;;470.55;159.45;;;;;;;;;;5031407;28;20063;-73
2022/01/15 11:39:35;;;;;;;329.42;108.78;;;;;;;;;;5030418;28;20558;-73
2022/01/15 11:42:03;;;;;;;370.23;157.13;;;;;;;;;;5030625;28;20452;-73
2022/01/15 11:44:30;;;;;;;369.33;140.02;;;;;;;;;;5031617;28;20049;-71
2022/01/15 11:47:00;;;;;;;202.27;81.13;;;;;;;;;;5028628;28;20081;-72
2022/01/15 11:49:30;;;;;;;110.97;53.15;;;;;;;;;;5021269;28;20045;-72
2022/01/15 11:51:57;;;;;;;57.58;34.95;;;;;;;;;;5031550;28;20123;-72
2022/01/15 11:54:24;;;;;;;38.88;27.60;;;;;;;;;;5031132;28;20049;-73
2022/01/15 11:56:50;;;;;;;39.42;26.15;;;;;;;;;;5031804;28;20045;-74
2022/01/15 11:59:26;;;;;;;42.38;29.23;;;;;;;;;;5030240;28;20119;-74
2022/01/15 12:01:52;;;;;;;41.50;27.35;;;;;;;;;;5031651;28;20050;-74
2022/01/15 12:04:29;;;;;;;47.38;30.48;;;;;;;;;;5031412;28;20053;-77
2022/01/15 12:07:05;;;;;;;48.17;32.50;;;;;;;;;;5031228;28;20111;-75
2022/01/15 12:09:41;;;;;;;62.70;39.53;;;;;;;;;;5027135;28;20755;-74
2022/01/15 12:12:17;;;;;;;72.32;44.38;;;;;;;;;;5011185;28;20049;-74
2022/01/15 12:14:51;;;;;;;67.97;40.95;;;;;;;;;;5019120;28;20547;-75
2022/01/15 12:17:31;;;;;;;61.38;40.13;;;;;;;;;;5031088;28;20103;-75
2022/01/15 12:20:05;;;;;;;59.22;37.28;;;;;;;;;;5029821;28;20091;-76
2022/01/15 12:22:39;;;;;;;60.22;37.30;;;;;;;;;;5028886;28;20558;-75
2022/01/15 12:25:06;;;;;;;48.40;33.45;;;;;;;;;;5031024;28;20116;-75
2022/01/15 12:27:33;;;;;;;41.45;28.60;;;;;;;;;;5030417;28;20049;-70
2022/01/15 12:30:16;;;;;;;41.58;27.45;;;;;;;;;;5031024;28;20099;-76
2022/01/15 12:32:47;;;;;;;44.08;28.98;;;;;;;;;;5023199;28;20096;-75
2022/01/15 12:35:18;;;;;;;38.42;28.73;;;;;;;;;;5011031;28;20058;-75
2022/01/15 12:37:56;;;;;;;34.10;23.95;;;;;;;;;;5028058;28;20045;-74
2022/01/15 12:40:35;;;;;;;30.65;22.60;;;;;;;;;;5030657;28;20493;-76
2022/01/15 12:43:06;;;;;;;32.60;23.98;;;;;;;;;;5031139;28;20060;-79
2022/01/15 12:45:33;;;;;;;30.75;22.27;;;;;;;;;;5014606;28;20050;-76
2022/01/15 12:48:00;;;;;;;31.13;21.60;;;;;;;;;;5028322;28;20061;-76
2022/01/15 12:50:27;;;;;;;35.15;25.98;;;;;;;;;;5026545;28;20438;-76
2022/01/15 12:53:00;;;;;;;60.80;36.08;;;;;;;;;;5010250;28;20173;-75
2022/01/15 12:55:33;;;;;;;70.32;39.80;;;;;;;;;;5016103;28;20413;-76
2022/01/15 12:58:00;;;;;;;86.80;46.05;;;;;;;;;;5018816;28;20050;-75
2022/01/15 13:00:29;;;;;;;36.38;26.92;;;;;;;;;;5010253;28;20494;-77
2022/01/15 13:02:57;;;;;;;36.05;25.75;;;;;;;;;;5010895;28;20054;-77
2022/01/15 13:05:23;;;;;;;;;;;;;;;;;;5009742;28;20057;-75
2022/01/15 13:07:55;;;;;;;32.10;22.65;;;;;;;;;;5010816;28;19971;-76
2022/01/15 13:10:30;;;;;;;30.40;24.27;;;;;;;;;;5011481;28;20050;-77
2022/01/15 13:12:56;;;;;;;27.98;21.80;;;;;;;;;;5011190;28;20482;-71
2022/01/15 13:15:24;;;;;;;27.77;22.15;;;;;;;;;;5010513;28;20054;-75
2022/01/15 13:17:50;;;;;;;27.55;20.00;;;;;;;;;;5010613;28;20053;-75
2022/01/15 13:20:23;;;;;;;19.10;14.55;;;;;;;;;;5010264;28;20108;-73
2022/01/15 13:22:50;;;;;;;27.73;22.02;;;;;;;;;;5008315;28;20100;-76
2022/01/15 13:25:20;;;;;;;24.70;20.33;;;;;;;;;;5010796;28;20049;-72
2022/01/15 13:27:46;;;;;;;21.98;17.63;;;;;;;;;;5010363;28;20149;-75
2022/01/15 13:30:13;;;;;;;19.98;16.60;;;;;;;;;;5010848;28;20049;-71
2022/01/15 13:32:50;;;;;;;19.52;14.45;;;;;;;;;;5010982;28;20058;-76
2022/01/15 13:35:18;;;;;;;21.63;16.05;;;;;;;;;;5011113;28;20094;-74
2022/01/15 13:37:55;;;;;;;17.25;14.80;;;;;;;;;;5010465;28;20050;-75
2022/01/15 13:40:42;;;;;;;17.30;13.13;;;;;;;;;;5014457;28;20104;-76
2022/01/15 13:43:23;;;;;;;16.07;13.10;;;;;;;;;;5014567;28;20054;-72
2022/01/15 13:45:50;;;;;;;13.90;11.85;;;;;;;;;;5013863;28;20075;-72
2022/01/15 13:48:23;;;;;;;16.17;12.93;;;;;;;;;;5013766;28;20474;-74
2022/01/15 13:53:39;;;;;;;16.02;12.57;;;;;;;;;;5014491;28;20050;-73
2022/01/15 13:56:12;;;;;;;17.75;12.18;;;;;;;;;;5014087;28;20097;-73
2022/01/15 13:58:39;;;;;;;16.15;12.30;;;;;;;;;;5013822;28;20054;-74
2022/01/15 14:01:19;;;;;;;14.45;11.75;;;;;;;;;;5013190;28;20572;-74
2022/01/15 14:03:46;;;;;;;16.63;11.95;;;;;;;;;;5013097;28;20560;-74
2022/01/15 14:06:13;;;;;;;16.17;12.30;;;;;;;;;;5012883;28;20478;-72
2022/01/15 14:08:39;;;;;;;15.00;11.75;;;;;;;;;;5013612;28;20050;-75
2022/01/15 14:11:13;;;;;;;15.18;11.25;;;;;;;;;;5010901;28;20046;-74
2022/01/15 14:13:40;;;;;;;13.93;11.82;;;;;;;;;;5013381;28;20080;-73
2022/01/15 14:16:20;;;;;;;14.10;11.30;;;;;;;;;;5013262;28;20119;-77
2022/01/15 14:18:53;;;;;;;26.33;13.68;;;;;;;;;;5011991;28;20279;-76
2022/01/15 14:23:58;;;;;;;26.05;14.63;;;;;;;;;;5010853;28;20058;-74
2022/01/15 14:26:28;;;;;;;18.23;12.60;;;;;;;;;;5012556;28;20042;-77
2022/01/15 14:28:58;;;;;;;41.00;16.75;;;;;;;;;;5012684;28;20046;-76
2022/01/15 14:31:25;;;;;;;32.60;16.45;;;;;;;;;;5012871;28;20482;-75
2022/01/15 14:33:53;;;;;;;32.83;14.65;;;;;;;;;;5012965;28;20050;-76
2022/01/15 14:36:19;;;;;;;;;;;;;;;;;;5013304;28;20383;-74
2022/01/15 14:38:46;;;;;;;18.75;13.23;;;;;;;;;;5009394;28;20344;-75
2022/01/15 14:41:13;;;;;;;31.93;15.07;;;;;;;;;;5011388;28;20053;-73
2022/01/15 14:43:39;;;;;;;25.73;13.50;;;;;;;;;;5011961;28;20445;-75
2022/01/15 14:46:06;;;;;;;16.08;11.85;;;;;;;;;;5013016;28;20042;-74
2022/01/15 14:48:34;;;;;;;19.45;12.35;;;;;;;;;;5012118;28;20049;-73
2022/01/15 14:51:00;;;;;;;19.00;12.90;;;;;;;;;;5012408;28;20494;-74
2022/01/15 14:53:27;;;;;;;17.92;12.20;;;;;;;;;;5011571;28;20057;-73